Portada
METAR-TAF:

METAR-TAF

Aeroports :

Txengdu, Xina

latitud: 30-40N, longitud: 104-01E, altitud: 508 m

Observació

L'informe es va fer fa 59 minuts, a les 05:00 UTC
Vent 2 kt amb direcció variable
Temperatura 18°C
Humitat 88%
Pressió 1015 hPa
Visibilitat: 5000 m
Escasses núvols a una alçada de 700 ft
Cel ennuvolat a una alçada de 2600 ft
boirina

METAR: ZUUU 210500Z VRB01MPS 5000 BR FEW007 BKN026 18/16 Q1015 NOSIG

Hora: 13:59 (05:59 UTC)

Pronòstic

L'informe es va fer fa 3 hores i 22 minuts, a les 02:37 UTC
Pronòstic vàlid del 21 a les 06 UTC al 22 a les 06 UTC
Vent 6 kt del Sud/Sud-Oest
Visibilitat: 3500 m
Núvols disperses a una alçada de 4000 ft
boirina
Temporalment
l' 21 a les 16 UTC al 21 a les 22 UTC
Escasses núvols a una alçada de 3000 ft, Cumulonimbus.
Cel ennuvolat a una alçada de 4000 ft
xàfecs de pluja

TAF: ZUUU 210237Z 2106/2206 20003MPS 3500 BR SCT040 TX20/2107Z TN16/2122Z TEMPO 2116/2122 -SHRA FEW030CB BKN040

Observacions i pronòstics meteorològics de més de 4000 aeroports (METAR i TAF).

Les estacions disponibles són els punts grocs i vermells al mapa.

Posi el ratolí al punt desitjat per veure el nom de l'estació.

Feu clic per veure les observacions i els pronòstics meteorològics.

Per canviar el mapa: feu clic els botons verds amb una creu de color negre per apropar; al botó verd amb un guió per allunyar la imatge; o en les fletxes verdes per a mapes adjacents.


METAR-TAF: